Time;durP1;ratioP1;P1;durP2;ratioP2;P2;SDS_P1;SDS_P2;PMS_P1;PMS_P2;Temp;Humidity;BMP_temperature;BMP_pressure;BME280_temperature;BME280_humidity;BME280_pressure;Samples;Min_cycle;Max_cycle;Signal;HPM_P1;HPM_P2
2021/04/29 00:01:30;;;;;;;;;;;;;;;21.72;27.93;98547.09;4423124;32;19958;-55
2021/04/29 00:03:56;;;;;;;;;;;;;;;21.67;28.35;98547.19;4404245;32;19961;-56
2021/04/29 00:06:22;;;;;;;;;;;;;;;21.66;27.96;98547.19;4403423;32;19979;-55
2021/04/29 00:08:48;;;;;;;;;;;;;;;21.64;28.20;98547.25;4418638;32;20490;-55
2021/04/29 00:11:13;;;;;;;;;;;;;;;21.62;27.90;98541.12;4418211;32;19965;-56
2021/04/29 00:13:39;;;;;;;;;;;;;;;21.62;27.98;98541.97;4419232;32;20293;-54
2021/04/29 00:16:05;;;;;;;;;;;;;;;21.59;27.91;98542.03;4418348;32;19946;-55
2021/04/29 00:18:31;;;;;;;;;;;;;;;21.57;28.61;98543.88;4418748;32;19962;-55
2021/04/29 00:20:57;;;;;;;;;;;;;;;21.60;28.26;98543.78;4418825;32;20699;-54
2021/04/29 00:23:23;;;;;;;;;;;;;;;21.60;27.66;98543.78;4406348;32;20041;-55
2021/04/29 00:25:49;;;;;;;;;;;;;;;21.61;29.07;98545.53;4404046;32;20002;-54
2021/04/29 00:28:15;;;;;;;;;;;;;;;21.59;28.13;98546.47;4413568;32;20010;-54
2021/04/29 00:30:41;;;;;;;;;;;;;;;21.59;28.68;98547.34;4422761;32;20139;-55
2021/04/29 00:33:07;;;;;;;;;;;;;;;21.61;28.12;98542.88;4411555;32;20353;-55
2021/04/29 00:35:33;;;;;;;;;;;;;;;21.59;28.34;98550.00;4403483;32;20315;-56
2021/04/29 00:37:58;;;;;;;;;;;;;;;21.55;28.40;98550.97;4410565;32;19954;-56
2021/04/29 00:40:24;;;;;;;;;;;;;;;21.58;28.67;98550.91;4418079;32;19946;-56
2021/04/29 00:42:50;;;;;;;;;;;;;;;21.60;28.68;98549.09;4418577;32;19993;-56
2021/04/29 00:45:16;;;;;;;;;;;;;;;21.60;29.28;98550.84;4418383;32;20291;-52
2021/04/29 00:47:42;;;;;;;;;;;;;;;21.56;29.58;98552.72;4418699;32;19953;-56
2021/04/29 00:50:08;;;;;;;;;;;;;;;21.58;28.58;98550.91;4417655;32;19942;-54
2021/04/29 00:52:34;;;;;;;;;;;;;;;21.59;28.46;98552.63;4414597;32;20355;-53
2021/04/29 00:55:00;;;;;;;;;;;;;;;21.52;28.61;98548.38;4403752;32;19990;-54
2021/04/29 00:57:26;;;;;;;;;;;;;;;21.51;29.65;98543.13;4404873;32;19958;-56
2021/04/29 00:59:51;;;;;;;;;;;;;;;21.56;29.10;98541.22;4417827;32;19962;-54
2021/04/29 01:02:17;;;;;;;;;;;;;;;21.56;28.85;98549.19;4424304;32;19949;-55
2021/04/29 01:04:45;;;;;;;;;;;;;;;21.56;28.59;98550.06;4403457;32;20008;-51
2021/04/29 01:07:10;;;;;;;;;;;;;;;21.53;29.78;98558.06;4402481;32;20009;-56
2021/04/29 01:09:39;;;;;;;;;;;;;;;21.49;29.48;98556.38;4416074;32;20301;-55
2021/04/29 01:12:05;;;;;;;;;;;;;;;21.46;29.99;98552.00;4417314;32;20661;-54
2021/04/29 01:14:31;;;;;;;;;;;;;;;21.46;29.41;98548.50;4418433;32;19964;-56
2021/04/29 01:16:57;;;;;;;;;;;;;;;21.45;28.54;98549.41;4405853;32;20330;-54
2021/04/29 01:19:23;;;;;;;;;;;;;;;21.54;28.33;98549.19;4413458;32;19972;-54
2021/04/29 01:21:49;;;;;;;;;;;;;;;21.55;28.46;98545.69;4423052;32;19954;-54
2021/04/29 01:24:14;;;;;;;;;;;;;;;21.53;28.75;98551.91;4408279;32;19954;-55
2021/04/29 01:26:40;;;;;;;;;;;;;;;21.51;29.33;98554.56;4403346;32;19986;-56
2021/04/29 01:29:06;;;;;;;;;;;;;;;21.51;29.67;98548.41;4410864;32;19965;-55
2021/04/29 01:31:32;;;;;;;;;;;;;;;21.49;29.49;98551.09;4417841;32;19998;-56
2021/04/29 01:33:58;;;;;;;;;;;;;;;21.50;29.58;98554.63;4417968;32;20001;-56
2021/04/29 01:36:24;;;;;;;;;;;;;;;21.48;29.40;98554.66;4417180;32;20345;-52
2021/04/29 01:38:50;;;;;;;;;;;;;;;21.41;29.29;98558.31;4416882;32;19989;-55
2021/04/29 01:41:16;;;;;;;;;;;;;;;21.43;29.57;98554.75;4417565;32;19951;-52
2021/04/29 01:43:42;;;;;;;;;;;;;;;21.42;29.27;98560.06;4412340;32;19950;-56
2021/04/29 01:46:08;;;;;;;;;;;;;;;21.45;29.10;98560.00;4402804;32;19996;-54
2021/04/29 01:48:33;;;;;;;;;;;;;;;21.45;28.84;98557.38;4420675;32;19949;-54
2021/04/29 01:50:59;;;;;;;;;;;;;;;21.45;29.41;98560.87;4432217;32;20342;-52
2021/04/29 01:53:25;;;;;;;;;;;;;;;21.44;29.90;98558.28;4432305;32;19973;-55
2021/04/29 01:55:51;;;;;;;;;;;;;;;21.40;28.67;98551.28;4432735;32;19950;-54
2021/04/29 01:58:17;;;;;;;;;;;;;;;21.46;28.80;98561.75;4430935;32;20302;-55
2021/04/29 02:00:43;;;;;;;;;;;;;;;21.45;28.90;98555.56;4416965;32;19961;-55
2021/04/29 02:03:09;;;;;;;;;;;;;;;21.44;30.38;98563.56;4416899;32;20351;-55
2021/04/29 02:05:35;;;;;;;;;;;;;;;21.39;29.14;98562.78;4432528;32;19958;-55
2021/04/29 02:08:01;;;;;;;;;;;;;;;21.46;29.20;98564.41;4431907;32;19950;-54
2021/04/29 02:10:26;;;;;;;;;;;;;;;21.38;30.39;98564.56;4418773;32;19953;-56
2021/04/29 02:12:52;;;;;;;;;;;;;;;21.38;29.38;98566.31;4416370;32;20390;-55
2021/04/29 02:15:18;;;;;;;;;;;;;;;21.41;28.52;98558.31;4429254;32;19968;-55
2021/04/29 02:17:44;;;;;;;;;;;;;;;21.42;30.30;98562.69;4432793;32;19965;-54
2021/04/29 02:20:10;;;;;;;;;;;;;;;21.42;29.68;98560.06;4431725;32;19993;-53
2021/04/29 02:22:36;;;;;;;;;;;;;;;21.39;29.24;98560.13;4432158;32;19992;-54
2021/04/29 02:25:02;;;;;;;;;;;;;;;21.41;29.54;98558.31;4423069;32;19974;-50
2021/04/29 02:27:28;;;;;;;;;;;;;;;21.41;29.61;98560.97;4416468;32;20678;-55
2021/04/29 02:29:54;;;;;;;;;;;;;;;21.42;30.42;98570.66;4424602;32;19970;-56
2021/04/29 02:32:20;;;;;;;;;;;;;;;21.34;29.96;98573.44;4432254;32;19985;-56
2021/04/29 02:34:46;;;;;;;;;;;;;;;21.39;30.04;98578.66;4426007;32;19954;-55
2021/04/29 02:37:12;;;;;;;;;;;;;;;21.37;29.64;98577.81;4416701;32;19950;-55
2021/04/29 02:39:37;;;;;;;;;;;;;;;21.26;30.48;98576.25;4421978;32;19954;-55
2021/04/29 02:42:03;;;;;;;;;;;;;;;21.31;29.75;98582.34;4431687;32;19997;-55
2021/04/29 02:44:29;;;;;;;;;;;;;;;21.33;29.57;98577.91;4428706;32;20330;-55
2021/04/29 02:46:55;;;;;;;;;;;;;;;21.33;29.69;98580.53;4423040;32;19967;-55
2021/04/29 02:49:23;;;;;;;;;;;;;;;21.34;30.22;98584.94;4428796;32;20384;-49
2021/04/29 02:51:49;;;;;;;;;;;;;;;21.32;29.95;98586.75;4416739;32;19954;-56
2021/04/29 02:54:15;;;;;;;;;;;;;;;21.38;29.54;98588.41;4417314;32;20544;-56
2021/04/29 02:56:41;;;;;;;;;;;;;;;21.35;29.35;98585.78;4432274;32;19993;-55
2021/04/29 02:59:06;;;;;;;;;;;;;;;21.27;30.14;98585.94;4430988;32;20000;-54
2021/04/29 03:01:32;;;;;;;;;;;;;;;21.28;30.70;98585.03;4417012;32;19958;-56
2021/04/29 03:03:58;;;;;;;;;;;;;;;21.26;30.13;98586.84;4417287;32;20573;-54
2021/04/29 03:06:24;;;;;;;;;;;;;;;21.33;29.67;98588.47;4429901;32;20378;-55
2021/04/29 03:08:50;;;;;;;;;;;;;;;21.42;30.07;98586.53;4431279;32;19993;-55
2021/04/29 03:11:16;;;;;;;;;;;;;;;21.29;29.84;98592.06;4419405;32;19965;-55
2021/04/29 03:13:42;;;;;;;;;;;;;;;21.18;29.92;98591.44;4416325;32;20275;-52
2021/04/29 03:16:08;;;;;;;;;;;;;;;21.28;30.02;98594.78;4427187;32;19953;-54
2021/04/29 03:18:34;;;;;;;;;;;;;;;21.24;30.83;98599.25;4430916;32;20028;-51
2021/04/29 03:21:00;;;;;;;;;;;;;;;21.25;29.98;98598.34;4431867;32;20057;-53
2021/04/29 03:23:26;;;;;;;;;;;;;;;21.25;30.23;98606.28;4431561;32;19953;-52
2021/04/29 03:25:51;;;;;;;;;;;;;;;21.27;30.24;98601.81;4424124;32;19950;-55
2021/04/29 03:28:17;;;;;;;;;;;;;;;21.38;30.02;98600.75;4415694;32;19956;-56
2021/04/29 03:30:43;;;;;;;;;;;;;;;21.36;30.07;98591.97;4423221;32;19953;-53
2021/04/29 03:33:10;;;;;;;;;;;;;;;21.28;29.68;98598.28;4431622;32;20001;-54
2021/04/29 03:35:36;;;;;;;;;;;;;;;21.30;30.18;98599.16;4428517;32;20360;-56
2021/04/29 03:38:02;;;;;;;;;;;;;;;21.29;29.88;98592.06;4419398;32;19950;-54
2021/04/29 03:40:28;;;;;;;;;;;;;;;21.19;30.47;98591.37;4422897;32;21590;-53
2021/04/29 03:42:54;;;;;;;;;;;;;;;21.25;30.52;98595.69;4435011;32;20041;-54
2021/04/29 03:45:20;;;;;;;;;;;;;;;21.24;29.89;98590.44;4431997;32;19996;-53
2021/04/29 03:47:46;;;;;;;;;;;;;;;21.10;30.96;98585.41;4419694;32;19992;-55
2021/04/29 03:50:11;;;;;;;;;;;;;;;21.23;30.80;98586.91;4426052;32;20298;-55
2021/04/29 03:52:37;;;;;;;;;;;;;;;21.30;30.45;98599.16;4419183;32;19958;-55
2021/04/29 03:55:03;;;;;;;;;;;;;;;21.20;30.63;98598.44;4418551;32;19962;-54
2021/04/29 03:57:29;;;;;;;;;;;;;;;21.25;30.62;98597.50;4419105;32;19969;-55
2021/04/29 03:59:55;;;;;;;;;;;;;;;21.26;30.75;98602.72;4419188;32;19991;-55
2021/04/29 04:02:22;;;;;;;;;;;;;;;21.27;30.48;98599.19;4411666;32;20838;-55
2021/04/29 04:04:48;;;;;;;;;;;;;;;21.28;30.26;98603.56;4413017;32;19961;-55
2021/04/29 04:07:14;;;;;;;;;;;;;;;21.23;30.59;98612.50;4402971;32;20021;-55
2021/04/29 04:09:40;;;;;;;;;;;;;;;21.17;30.71;98609.09;4405583;32;19994;-52
2021/04/29 04:12:06;;;;;;;;;;;;;;;21.22;30.07;98611.66;4413458;32;20428;-56
2021/04/29 04:14:32;;;;;;;;;;;;;;;21.23;31.04;98610.75;4404364;32;19954;-54
2021/04/29 04:16:58;;;;;;;;;;;;;;;21.18;30.44;98615.25;4414223;32;19983;-56
2021/04/29 04:19:24;;;;;;;;;;;;;;;21.15;30.10;98624.13;4426845;32;19968;-55
2021/04/29 04:21:50;;;;;;;;;;;;;;;21.21;30.61;98620.50;4418412;32;21014;-55
2021/04/29 04:24:15;;;;;;;;;;;;;;;21.16;30.70;98628.53;4420240;32;19977;-53
2021/04/29 04:26:41;;;;;;;;;;;;;;;21.20;30.61;98639.94;4417034;32;20295;-54
2021/04/29 04:29:07;;;;;;;;;;;;;;;21.21;30.86;98636.37;4403109;32;19978;-55
2021/04/29 04:31:33;;;;;;;;;;;;;;;21.19;31.01;98635.53;4410199;32;19954;-55
2021/04/29 04:33:59;;;;;;;;;;;;;;;21.21;30.75;98636.37;4405472;32;19950;-55
2021/04/29 04:36:25;;;;;;;;;;;;;;;21.03;30.89;98640.22;4413521;32;20022;-55
2021/04/29 04:38:51;;;;;;;;;;;;;;;21.08;30.99;98637.50;4413439;32;19993;-56
2021/04/29 04:41:17;;;;;;;;;;;;;;;21.13;30.79;98644.47;4416960;32;20013;-53
2021/04/29 04:43:43;;;;;;;;;;;;;;;21.14;31.39;98651.50;4419419;32;20005;-55
2021/04/29 04:46:09;;;;;;;;;;;;;;;21.24;30.59;98646.91;4416626;32;19942;-55
2021/04/29 04:48:35;;;;;;;;;;;;;;;21.21;30.06;98644.31;4407262;32;19954;-55
2021/04/29 04:51:00;;;;;;;;;;;;;;;21.20;30.97;98639.94;4419201;32;20353;-55
2021/04/29 04:53:26;;;;;;;;;;;;;;;21.19;30.59;98632.88;4426777;32;19990;-54
2021/04/29 04:55:53;;;;;;;;;;;;;;;21.15;30.77;98642.66;4425578;32;20331;-54
2021/04/29 04:58:19;;;;;;;;;;;;;;;21.23;31.04;98641.63;4426659;32;19962;-52
2021/04/29 05:00:45;;;;;;;;;;;;;;;21.16;30.73;98643.50;4425688;32;20361;-55
2021/04/29 05:03:10;;;;;;;;;;;;;;;21.18;31.08;98650.53;4427198;32;19998;-54
2021/04/29 05:05:36;;;;;;;;;;;;;;;21.18;30.64;98652.31;4426134;32;20434;-55
2021/04/29 05:08:02;;;;;;;;;;;;;;;21.16;29.83;98643.50;4425533;32;19937;-50
2021/04/29 05:10:30;;;;;;;;;;;;;;;21.18;30.92;98652.31;4426322;32;19984;-55
2021/04/29 05:12:56;;;;;;;;;;;;;;;21.18;30.82;98647.03;4425124;32;19982;-55
2021/04/29 05:15:22;;;;;;;;;;;;;;;21.24;30.60;98652.19;4426467;32;19949;-53
2021/04/29 05:17:47;;;;;;;;;;;;;;;21.17;30.84;98656.72;4425817;32;19949;-56
2021/04/29 05:20:13;;;;;;;;;;;;;;;21.20;29.80;98650.50;4424892;32;19947;-54
2021/04/29 05:22:39;;;;;;;;;;;;;;;21.13;30.10;98659.47;4425112;32;19961;-56
2021/04/29 05:25:05;;;;;;;;;;;;;;;21.09;31.26;98660.44;4425089;32;19942;-55
2021/04/29 05:27:31;;;;;;;;;;;;;;;21.05;31.05;98668.44;4426345;32;19964;-52
2021/04/29 05:29:57;;;;;;;;;;;;;;;21.13;31.19;98659.47;4425683;32;19960;-55
2021/04/29 05:32:23;;;;;;;;;;;;;;;21.06;30.65;98672.81;4425876;32;20059;-55
2021/04/29 05:34:49;;;;;;;;;;;;;;;21.04;30.91;98671.09;4426826;32;19954;-55
2021/04/29 05:37:15;;;;;;;;;;;;;;;21.15;31.18;98677.06;4426024;32;19949;-55
2021/04/29 05:39:41;;;;;;;;;;;;;;;21.08;30.94;98687.78;4425263;32;20527;-53
2021/04/29 05:42:07;;;;;;;;;;;;;;;21.10;30.76;98688.63;4426794;32;20035;-53
2021/04/29 05:44:33;;;;;;;;;;;;;;;21.17;30.81;98682.31;4425632;32;19952;-52
2021/04/29 05:46:58;;;;;;;;;;;;;;;21.11;30.13;98685.09;4427109;32;19957;-55
2021/04/29 05:49:24;;;;;;;;;;;;;;;21.12;30.99;98685.06;4417727;32;19974;-55
2021/04/29 05:51:50;;;;;;;;;;;;;;;21.10;31.22;98686.84;4422748;32;20358;-55
2021/04/29 05:54:16;;;;;;;;;;;;;;;21.09;30.66;98689.53;4418831;32;19965;-54
2021/04/29 05:56:42;;;;;;;;;;;;;;;21.17;30.94;98679.66;4418164;32;19954;-54
2021/04/29 05:59:08;;;;;;;;;;;;;;;21.16;30.95;98684.09;4430810;32;19979;-54
2021/04/29 06:01:34;;;;;;;;;;;;;;;21.13;30.21;98685.94;4430111;32;19997;-56
2021/04/29 06:04:00;;;;;;;;;;;;;;;21.15;30.85;98685.00;4425904;32;20053;-53
2021/04/29 06:06:26;;;;;;;;;;;;;;;21.17;31.15;98692.91;4425243;32;20353;-53
2021/04/29 06:08:52;;;;;;;;;;;;;;;21.16;30.65;98693.81;4424182;32;20343;-54
2021/04/29 06:11:18;;;;;;;;;;;;;;;21.12;30.55;98705.34;4426035;32;19989;-53
2021/04/29 06:13:45;;;;;;;;;;;;;;;21.15;30.46;98695.59;4424141;32;19993;-51
2021/04/29 06:16:11;;;;;;;;;;;;;;;21.17;30.61;98703.50;4425018;32;20342;-55
2021/04/29 06:18:37;;;;;;;;;;;;;;;21.18;30.77;98700.81;4425265;32;20325;-53
2021/04/29 06:21:02;;;;;;;;;;;;;;;21.22;30.48;98706.06;4423404;32;19969;-51
2021/04/29 06:23:29;;;;;;;;;;;;;;;21.27;30.51;98710.38;4430544;32;19984;-55
2021/04/29 06:25:54;;;;;;;;;;;;;;;21.25;30.34;98711.31;4430036;32;19962;-55
2021/04/29 06:28:20;;;;;;;;;;;;;;;21.28;29.62;98712.13;4419703;32;20414;-54
2021/04/29 06:30:46;;;;;;;;;;;;;;;21.28;29.75;98722.69;4414848;32;19965;-54
2021/04/29 06:33:12;;;;;;;;;;;;;;;21.27;30.38;98715.66;4426798;32;19968;-54
2021/04/29 06:35:38;;;;;;;;;;;;;;;21.31;29.98;98717.38;4416360;32;19950;-51
2021/04/29 06:38:04;;;;;;;;;;;;;;;21.28;30.02;98720.06;4417376;32;20339;-53
2021/04/29 06:40:30;;;;;;;;;;;;;;;21.33;29.86;98714.69;4416806;32;19968;-55
2021/04/29 06:42:56;;;;;;;;;;;;;;;21.31;30.26;98714.72;4416859;32;19954;-53
2021/04/29 06:45:22;;;;;;;;;;;;;;;21.29;30.15;98713.00;4430899;32;20323;-54
2021/04/29 06:47:47;;;;;;;;;;;;;;;21.28;30.52;98712.13;4431599;32;19949;-55
2021/04/29 06:50:13;;;;;;;;;;;;;;;21.29;30.32;98713.84;4414858;32;19962;-50
2021/04/29 06:52:39;;;;;;;;;;;;;;;21.36;29.90;98708.47;4414430;32;20003;-54
2021/04/29 06:55:05;;;;;;;;;;;;;;;21.40;29.69;98712.78;4417041;32;19973;-52
2021/04/29 06:57:31;;;;;;;;;;;;;;;21.44;29.92;98707.41;4431126;32;20312;-52
2021/04/29 06:59:57;;;;;;;;;;;;;;;21.46;29.68;98704.75;4419931;32;20319;-53
2021/04/29 07:02:23;;;;;;;;;;;;;;;21.38;30.79;98709.31;4431064;32;20055;-50
2021/04/29 07:04:49;;;;;;;;;;;;;;;21.39;30.07;98714.59;4422286;32;19965;-51
2021/04/29 07:07:15;;;;;;;;;;;;;;;21.43;30.03;98710.12;4416977;32;20307;-53
2021/04/29 07:09:41;;;;;;;;;;;;;;;21.48;30.19;98710.88;4425660;32;19957;-50
2021/04/29 07:12:07;;;;;;;;;;;;;;;21.48;30.00;98709.12;4425052;32;19992;-51
2021/04/29 07:14:33;;;;;;;;;;;;;;;21.51;30.10;98712.63;4427667;32;19993;-53
2021/04/29 07:16:59;;;;;;;;;;;;;;;21.52;30.35;98709.91;4418621;32;19985;-50
2021/04/29 07:19:25;;;;;;;;;;;;;;;21.53;30.25;98705.50;4423856;32;20016;-53
2021/04/29 07:21:52;;;;;;;;;;;;;;;21.50;30.29;98706.44;4433790;32;20012;-53
2021/04/29 07:24:18;;;;;;;;;;;;;;;21.52;30.47;98707.28;4428890;32;19976;-52
2021/04/29 07:26:44;;;;;;;;;;;;;;;21.53;30.71;98716.09;4418776;32;19954;-54
2021/04/29 07:29:10;;;;;;;;;;;;;;;21.51;30.77;98710.81;4425196;32;19950;-55
2021/04/29 07:31:36;;;;;;;;;;;;;;;21.54;30.80;98712.56;4422394;32;19942;-55
2021/04/29 07:34:02;;;;;;;;;;;;;;;21.53;30.90;98711.66;4421124;32;19962;-52
2021/04/29 07:36:28;;;;;;;;;;;;;;;21.52;31.08;98715.22;4431885;32;20357;-54
2021/04/29 07:38:54;;;;;;;;;;;;;;;21.53;31.04;98711.66;4418053;32;19953;-54
2021/04/29 07:41:23;;;;;;;;;;;;;;;21.51;31.15;98718.78;4418620;32;19966;-51
2021/04/29 07:43:49;;;;;;;;;;;;;;;21.51;31.20;98718.78;4418319;32;20013;-53
2021/04/29 07:46:15;;;;;;;;;;;;;;;21.49;31.27;98717.94;4417970;32;19942;-55
2021/04/29 07:48:42;;;;;;;;;;;;;;;21.51;31.24;98720.56;4417937;32;19968;-55
2021/04/29 07:51:07;;;;;;;;;;;;;;;21.50;31.27;98711.72;4409803;32;19984;-51
2021/04/29 07:53:33;;;;;;;;;;;;;;;21.48;31.35;98722.38;4408664;32;19951;-54
2021/04/29 07:55:59;;;;;;;;;;;;;;;21.52;31.39;98717.00;4415915;32;19959;-53
2021/04/29 07:58:25;;;;;;;;;;;;;;;21.53;31.29;98719.59;4417574;32;19978;-54
2021/04/29 08:00:52;;;;;;;;;;;;;;;21.53;31.33;98713.47;4424123;32;19958;-51
2021/04/29 08:03:18;;;;;;;;;;;;;;;21.53;31.43;98709.00;4417526;32;20006;-52
2021/04/29 08:05:44;;;;;;;;;;;;;;;21.55;31.42;98714.28;4411548;32;19950;-53
2021/04/29 08:08:10;;;;;;;;;;;;;;;21.53;31.35;98710.81;4417897;32;19954;-54
2021/04/29 08:10:39;;;;;;;;;;;;;;;21.55;31.55;98725.78;4417463;32;19997;-54
2021/04/29 08:13:05;;;;;;;;;;;;;;;21.54;31.45;98724.00;4417282;32;19992;-53
2021/04/29 08:15:31;;;;;;;;;;;;;;;21.55;31.54;98731.06;4400294;32;19965;-51
2021/04/29 08:17:57;;;;;;;;;;;;;;;21.54;31.40;98733.75;4403053;32;19988;-54
2021/04/29 08:20:23;;;;;;;;;;;;;;;21.56;31.77;98738.13;4404501;32;20393;-53
2021/04/29 08:22:49;;;;;;;;;;;;;;;21.61;31.54;98744.19;4402747;32;19953;-53
2021/04/29 08:25:14;;;;;;;;;;;;;;;21.63;31.64;98746.81;4406976;32;19977;-53
2021/04/29 08:27:41;;;;;;;;;;;;;;;21.62;31.72;98743.28;4417642;32;20381;-54
2021/04/29 08:30:07;;;;;;;;;;;;;;;21.59;31.67;98748.66;4413218;32;20071;-50
2021/04/29 08:32:33;;;;;;;;;;;;;;;21.61;31.67;98752.13;4402330;32;20601;-53
2021/04/29 08:34:59;;;;;;;;;;;;;;;21.65;31.53;98752.06;4404043;32;19962;-51
2021/04/29 08:37:25;;;;;;;;;;;;;;;21.62;31.71;98753.88;4416661;32;19978;-51
2021/04/29 08:39:51;;;;;;;;;;;;;;;21.59;31.79;98756.59;4417286;32;20005;-51
2021/04/29 08:42:16;;;;;;;;;;;;;;;21.61;31.79;98757.44;4417169;32;19988;-54
2021/04/29 08:44:42;;;;;;;;;;;;;;;21.67;31.83;98763.53;4417960;32;20029;-53
2021/04/29 08:47:08;;;;;;;;;;;;;;;21.67;31.95;98760.88;4402944;32;19994;-54
2021/04/29 08:49:34;;;;;;;;;;;;;;;21.65;31.67;98758.25;4401396;32;19955;-53
2021/04/29 08:52:00;;;;;;;;;;;;;;;21.70;31.84;98756.41;4415435;32;19958;-52
2021/04/29 08:54:26;;;;;;;;;;;;;;;21.69;31.82;98762.62;4417017;32;19992;-54
2021/04/29 08:56:52;;;;;;;;;;;;;;;21.70;31.58;98761.72;4417193;32;20267;-55
2021/04/29 08:59:18;;;;;;;;;;;;;;;21.63;31.91;98763.56;4416610;32;19950;-53
2021/04/29 09:01:44;;;;;;;;;;;;;;;21.66;31.77;98767.06;4416703;32;20290;-55
2021/04/29 09:04:10;;;;;;;;;;;;;;;21.68;31.68;98766.16;4417003;32;19995;-54
2021/04/29 09:06:36;;;;;;;;;;;;;;;21.71;31.49;98771.41;4416935;32;19950;-53
2021/04/29 09:09:02;;;;;;;;;;;;;;;21.71;31.62;98762.59;4415473;32;19950;-54
2021/04/29 09:11:28;;;;;;;;;;;;;;;21.73;31.65;98772.28;4417181;32;20391;-54
2021/04/29 09:13:54;;;;;;;;;;;;;;;21.74;31.50;98770.47;4418123;32;20557;-55
2021/04/29 09:16:20;;;;;;;;;;;;;;;21.76;31.50;98774.84;4416664;32;19989;-54
2021/04/29 09:18:48;;;;;;;;;;;;;;;21.76;31.46;98769.56;4416964;32;20007;-55
2021/04/29 09:21:14;;;;;;;;;;;;;;;21.73;31.63;98776.69;4417297;32;19960;-55
2021/04/29 09:23:40;;;;;;;;;;;;;;;21.76;31.59;98773.97;4418012;32;19958;-55
2021/04/29 09:26:07;;;;;;;;;;;;;;;21.79;31.79;98771.25;4416945;32;20013;-52
2021/04/29 09:28:33;;;;;;;;;;;;;;;21.82;31.80;98775.63;4416924;32;19984;-52
2021/04/29 09:30:59;;;;;;;;;;;;;;;21.85;31.66;98764.97;4415973;32;19954;-54
2021/04/29 09:33:24;;;;;;;;;;;;;;;21.83;31.87;98757.06;4414930;32;20295;-52
2021/04/29 09:35:50;;;;;;;;;;;;;;;21.85;31.83;98764.97;4417584;32;20016;-54
2021/04/29 09:38:16;;;;;;;;;;;;;;;21.83;31.86;98759.72;4416419;32;19969;-55
2021/04/29 09:40:44;;;;;;;;;;;;;;;21.84;31.58;98756.16;4417847;32;19966;-54
2021/04/29 09:43:09;;;;;;;;;;;;;;;21.89;31.70;98748.97;4417312;32;19977;-52
2021/04/29 09:45:38;;;;;;;;;;;;;;;21.89;31.61;98756.94;4417399;32;19955;-51
2021/04/29 09:48:04;;;;;;;;;;;;;;;21.89;31.74;98758.72;4417436;32;20315;-50
2021/04/29 09:50:30;;;;;;;;;;;;;;;21.95;31.63;98765.69;4417000;32;20057;-51
2021/04/29 09:52:56;;;;;;;;;;;;;;;21.93;31.76;98765.69;4415923;32;20038;-52
2021/04/29 09:55:22;;;;;;;;;;;;;;;21.90;31.69;98761.31;4414146;32;19958;-52
2021/04/29 09:57:48;;;;;;;;;;;;;;;21.93;31.68;98759.53;4417079;32;19968;-52
2021/04/29 10:00:14;;;;;;;;;;;;;;;21.95;31.59;98761.25;4416124;32;19961;-54
2021/04/29 10:02:40;;;;;;;;;;;;;;;21.94;31.68;98748.91;4413588;32;20004;-54
2021/04/29 10:05:06;;;;;;;;;;;;;;;21.95;31.66;98760.38;4416439;32;19969;-51
2021/04/29 10:07:32;;;;;;;;;;;;;;;21.92;31.71;98755.16;4416165;32;20561;-50
2021/04/29 10:09:58;;;;;;;;;;;;;;;21.89;31.87;98764.88;4413725;32;19950;-54
2021/04/29 10:12:24;;;;;;;;;;;;;;;21.88;31.82;98760.50;4406919;32;19958;-52
2021/04/29 10:14:50;;;;;;;;;;;;;;;21.86;31.85;98762.28;4401066;32;19961;-51
2021/04/29 10:17:16;;;;;;;;;;;;;;;21.86;31.88;98762.28;4406010;32;19999;-53
2021/04/29 10:19:43;;;;;;;;;;;;;;;21.83;31.98;98762.38;4415021;32;20321;-52
2021/04/29 10:22:09;;;;;;;;;;;;;;;21.82;31.95;98760.63;4415662;32;19961;-53
2021/04/29 10:24:35;;;;;;;;;;;;;;;21.86;31.81;98762.28;4416330;32;19953;-48
2021/04/29 10:27:01;;;;;;;;;;;;;;;21.93;31.74;98767.50;4415419;32;19954;-54
2021/04/29 10:29:27;;;;;;;;;;;;;;;21.89;31.79;98783.44;4412725;32;19991;-52
2021/04/29 10:31:53;;;;;;;;;;;;;;;21.85;31.90;98805.59;4414333;32;20005;-51
2021/04/29 10:34:19;;;;;;;;;;;;;;;21.88;31.70;98816.12;4416991;32;19939;-50
2021/04/29 10:36:48;;;;;;;;;;;;;;;22.02;31.50;98815.88;4415659;32;19992;-53
2021/04/29 10:39:14;;;;;;;;;;;;;;;22.08;31.41;98814.91;4413716;32;19999;-50
2021/04/29 10:41:40;;;;;;;;;;;;;;;22.02;31.46;98815.88;4416676;32;19985;-53
2021/04/29 10:44:06;;;;;;;;;;;;;;;22.03;31.42;98808.78;4416162;32;19987;-54
2021/04/29 10:46:32;;;;;;;;;;;;;;;22.01;31.44;98813.25;4416143;32;19984;-52
2021/04/29 10:48:58;;;;;;;;;;;;;;;22.06;31.37;98800.81;4415675;32;19951;-48
2021/04/29 10:51:24;;;;;;;;;;;;;;;22.12;31.27;98805.09;4414841;32;20010;-52
2021/04/29 10:53:50;;;;;;;;;;;;;;;22.08;31.37;98808.72;4405681;32;20000;-52
2021/04/29 10:56:16;;;;;;;;;;;;;;;22.05;31.35;98804.34;4414520;32;19953;-49
2021/04/29 10:58:42;;;;;;;;;;;;;;;22.02;31.37;98804.41;4416885;32;19950;-53
2021/04/29 11:01:09;;;;;;;;;;;;;;;22.09;31.20;98807.81;4416776;32;19980;-52
2021/04/29 11:03:34;;;;;;;;;;;;;;;22.12;31.18;98799.81;4417914;32;19954;-51
2021/04/29 11:06:00;;;;;;;;;;;;;;;22.07;31.24;98812.25;4416831;32;20318;-49
2021/04/29 11:08:26;;;;;;;;;;;;;;;22.04;31.35;98808.78;4417019;32;20377;-53
2021/04/29 11:10:52;;;;;;;;;;;;;;;22.09;31.38;98805.16;4414028;32;19949;-51
2021/04/29 11:13:18;;;;;;;;;;;;;;;22.07;31.34;98817.56;4415652;32;19958;-50
2021/04/29 11:15:44;;;;;;;;;;;;;;;22.17;31.14;98814.72;4416157;32;19958;-55
2021/04/29 11:18:10;;;;;;;;;;;;;;;22.14;31.16;98822.72;4416387;32;19946;-50
2021/04/29 11:20:36;;;;;;;;;;;;;;;22.13;31.23;98817.47;4415800;32;20356;-54
2021/04/29 11:23:02;;;;;;;;;;;;;;;22.10;31.25;98806.88;4417454;32;19954;-53
2021/04/29 11:25:28;;;;;;;;;;;;;;;22.13;31.18;98807.72;4417828;32;19974;-52
2021/04/29 11:27:56;;;;;;;;;;;;;;;22.18;31.09;98797.03;4417693;32;19956;-51
2021/04/29 11:30:23;;;;;;;;;;;;;;;22.18;31.13;98802.31;4414775;32;20078;-54
2021/04/29 11:32:48;;;;;;;;;;;;;;;22.17;31.02;98798.81;4415079;32;19980;-52
2021/04/29 11:35:14;;;;;;;;;;;;;;;22.17;31.15;98788.22;4417214;32;20413;-48
2021/04/29 11:37:40;;;;;;;;;;;;;;;22.15;31.14;98800.59;4417127;32;20001;-52
2021/04/29 11:40:06;;;;;;;;;;;;;;;22.16;31.04;98789.13;4415871;32;20002;-50
2021/04/29 11:42:32;;;;;;;;;;;;;;;22.18;31.10;98795.25;4416718;32;19954;-52
2021/04/29 11:44:58;;;;;;;;;;;;;;;22.12;31.22;98792.72;4416267;32;19997;-53
2021/04/29 11:47:24;;;;;;;;;;;;;;;22.13;31.10;98791.81;4416892;32;20025;-53
2021/04/29 11:49:50;;;;;;;;;;;;;;;22.19;31.10;98796.13;4413658;32;20101;-48
2021/04/29 11:52:16;;;;;;;;;;;;;;;22.18;31.04;98794.38;4416221;32;19953;-51
2021/04/29 11:54:42;;;;;;;;;;;;;;;22.15;31.13;98802.41;4415883;32;19949;-53
2021/04/29 11:57:08;;;;;;;;;;;;;;;22.21;31.10;98790.78;4417820;32;19954;-50
2021/04/29 11:59:34;;;;;;;;;;;;;;;22.22;31.10;98779.28;4417822;32;20004;-51
2021/04/29 12:02:01;;;;;;;;;;;;;;;22.15;31.17;98784.69;4420539;32;19960;-50
2021/04/29 12:04:26;;;;;;;;;;;;;;;22.22;31.09;98796.03;4411321;32;20023;-51
2021/04/29 12:06:52;;;;;;;;;;;;;;;22.14;31.13;98785.59;4403251;32;19954;-55
2021/04/29 12:09:18;;;;;;;;;;;;;;;22.14;31.18;98793.56;4411159;32;19949;-55
2021/04/29 12:11:44;;;;;;;;;;;;;;;22.14;31.09;98788.25;4419322;32;19949;-53
2021/04/29 12:14:10;;;;;;;;;;;;;;;22.22;31.07;98795.19;4413902;32;19998;-50
2021/04/29 12:16:36;;;;;;;;;;;;;;;22.23;30.94;98797.81;4404084;32;19969;-49
2021/04/29 12:19:03;;;;;;;;;;;;;;;22.26;30.94;98792.44;4408778;32;20612;-51
2021/04/29 12:21:30;;;;;;;;;;;;;;;22.24;30.90;98798.66;4417829;32;20296;-50
2021/04/29 12:23:56;;;;;;;;;;;;;;;22.25;30.90;98797.75;4414828;32;20004;-48
2021/04/29 12:26:22;;;;;;;;;;;;;;;22.28;30.80;98784.44;4403817;32;20130;-52
2021/04/29 12:28:48;;;;;;;;;;;;;;;22.27;30.84;98788.00;4414442;32;19968;-52
2021/04/29 12:31:14;;;;;;;;;;;;;;;22.24;30.92;98783.66;4415385;32;20058;-50
2021/04/29 12:33:40;;;;;;;;;;;;;;;22.21;30.98;98802.25;4417805;32;20294;-50
2021/04/29 12:36:06;;;;;;;;;;;;;;;22.26;30.91;98807.47;4416782;32;19961;-53
2021/04/29 12:38:31;;;;;;;;;;;;;;;22.36;30.76;98793.12;4416983;32;20067;-53
2021/04/29 12:40:57;;;;;;;;;;;;;;;22.18;31.01;98789.94;4416969;32;19965;-51